createdAt,value
2023-05-14T00:00:35.786Z,11.8
2023-05-14T00:05:34.011Z,11.7
2023-05-14T00:10:32.019Z,11.6
2023-05-14T00:15:30.914Z,11.6
2023-05-14T00:20:28.253Z,11.7
2023-05-14T00:25:26.181Z,11.7
2023-05-14T00:30:24.572Z,11.7
2023-05-14T00:35:22.546Z,11.7
2023-05-14T00:40:20.802Z,11.5
2023-05-14T00:45:18.706Z,11.7
2023-05-14T00:50:19.713Z,11.6
2023-05-14T00:55:17.362Z,11.6
2023-05-14T01:00:15.579Z,11.6
2023-05-14T01:05:13.484Z,11.6
2023-05-14T01:10:11.533Z,11.6
2023-05-14T01:15:09.581Z,11.5
2023-05-14T01:20:07.537Z,11.4
2023-05-14T01:25:05.662Z,11.2
2023-05-14T01:30:04.036Z,11
2023-05-14T01:35:02.440Z,10.9
2023-05-14T01:40:00.182Z,10.8
2023-05-14T01:44:58.006Z,10.7
2023-05-14T01:49:59.668Z,10.6
2023-05-14T01:54:57.185Z,10.8
2023-05-14T01:59:55.377Z,10.8
2023-05-14T02:04:53.117Z,10.6
2023-05-14T02:09:50.931Z,10.7
2023-05-14T02:14:49.030Z,10.6
2023-05-14T02:19:47.046Z,10.7
2023-05-14T02:24:45.094Z,10.6
2023-05-14T02:29:42.822Z,10.6
2023-05-14T02:34:40.647Z,10.5
2023-05-14T02:39:38.685Z,10.6
2023-05-14T02:44:36.719Z,10.5
2023-05-14T02:49:34.823Z,10.6
2023-05-14T02:54:33.041Z,10.5
2023-05-14T02:59:31.196Z,10.4
2023-05-14T03:04:29.257Z,10.4
2023-05-14T03:09:27.143Z,10.2
2023-05-14T03:14:24.984Z,10.3
2023-05-14T03:19:23.061Z,10.4
2023-05-14T03:24:21.140Z,10.4
2023-05-14T03:29:23.367Z,10.4
2023-05-14T03:34:20.400Z,10.5
2023-05-14T03:39:18.376Z,10.4
2023-05-14T03:44:16.328Z,10.3
2023-05-14T03:49:14.339Z,10.3
2023-05-14T03:54:12.429Z,10.1
2023-05-14T03:59:10.485Z,10.3
2023-05-14T04:04:08.726Z,10.3
2023-05-14T04:09:06.822Z,10.4
2023-05-14T04:14:04.963Z,10.3
2023-05-14T04:19:03.345Z,10.3
2023-05-14T04:24:01.317Z,10.3
2023-05-14T04:28:59.480Z,10.3
2023-05-14T04:33:57.597Z,10.2
2023-05-14T04:38:55.531Z,10.2
2023-05-14T04:43:53.539Z,10.2
2023-05-14T04:48:51.814Z,10.1
2023-05-14T04:53:49.912Z,9.9
2023-05-14T04:58:48.092Z,9.8
2023-05-14T05:03:46.099Z,9.6
2023-05-14T05:08:44.099Z,9.5
2023-05-14T05:13:42.115Z,9.5
2023-05-14T05:18:40.286Z,9.5
2023-05-14T05:23:38.524Z,9.8
2023-05-14T05:28:36.785Z,9.9
2023-05-14T05:33:35.138Z,10.1
2023-05-14T05:38:33.256Z,10.3
2023-05-14T05:43:31.418Z,10.2
2023-05-14T05:48:29.692Z,10.2
2023-05-14T05:53:27.785Z,10.1
2023-05-14T05:58:25.936Z,10.2
2023-05-14T06:03:24.231Z,10.4
2023-05-14T06:08:22.801Z,10.7
2023-05-14T06:13:21.717Z,11.5
2023-05-14T06:18:20.852Z,12.6
2023-05-14T06:23:19.395Z,12.5
2023-05-14T06:28:17.127Z,12.4
2023-05-14T06:33:14.988Z,11.7
2023-05-14T06:38:13.132Z,11.6
2023-05-14T06:43:11.454Z,11.9
2023-05-14T06:48:10.257Z,12.3
2023-05-14T06:53:08.377Z,12.5
2023-05-14T06:58:07.063Z,12.8
2023-05-14T07:03:05.275Z,12.7
2023-05-14T07:08:03.162Z,12.3
2023-05-14T07:13:01.015Z,11.6
2023-05-14T07:17:58.878Z,11.3
2023-05-14T07:22:56.815Z,11.3
2023-05-14T07:27:54.786Z,10.9
2023-05-14T07:32:52.757Z,11.1
2023-05-14T07:37:51.059Z,11.2
2023-05-14T07:42:49.482Z,11.5
2023-05-14T07:47:47.618Z,11.7
2023-05-14T07:52:45.791Z,11.8
2023-05-14T07:57:44.692Z,12.3
2023-05-14T08:02:43.783Z,13.2
2023-05-14T08:07:41.995Z,13.3
2023-05-14T08:12:40.032Z,12.8
2023-05-14T08:17:38.512Z,13.3
2023-05-14T08:22:36.959Z,13.3
2023-05-14T08:27:35.534Z,13.7
2023-05-14T08:32:34.795Z,15.1
2023-05-14T08:37:33.307Z,15.6
2023-05-14T08:42:31.748Z,15.4
2023-05-14T08:47:29.600Z,15.1
2023-05-14T08:52:27.635Z,15
2023-05-14T08:57:24.970Z,14.3
2023-05-14T09:02:22.261Z,13.7
2023-05-14T09:07:20.014Z,13.2
2023-05-14T09:12:18.113Z,13.5
2023-05-14T09:17:16.179Z,13.4
2023-05-14T09:22:13.142Z,13
2023-05-14T09:27:11.341Z,13.4
2023-05-14T09:32:10.396Z,14.4
2023-05-14T09:37:09.028Z,14.5
2023-05-14T09:42:07.789Z,14.8
2023-05-14T09:47:05.726Z,14.3
2023-05-14T09:52:04.226Z,15
2023-05-14T09:57:02.857Z,15.4
2023-05-14T10:02:01.347Z,15.1
2023-05-14T10:06:59.795Z,16.4
2023-05-14T10:12:00.686Z,20.2
2023-05-14T10:16:59.815Z,19.6
2023-05-14T10:21:57.830Z,20
2023-05-14T10:26:55.953Z,19.3
2023-05-14T10:31:53.488Z,17.2
2023-05-14T10:36:51.381Z,17.2
2023-05-14T10:41:47.993Z,16.6
2023-05-14T10:46:46.542Z,16.4
2023-05-14T10:51:44.804Z,16.3
2023-05-14T10:56:46.408Z,16.3
2023-05-14T11:01:43.764Z,16.6
2023-05-14T11:06:42.536Z,16.9
2023-05-14T11:11:42.617Z,19.4
2023-05-14T11:16:41.687Z,19.6
2023-05-14T11:21:39.711Z,19.5
2023-05-14T11:26:37.585Z,19.1
2023-05-14T11:31:35.815Z,19.5
2023-05-14T11:36:34.111Z,19.7
2023-05-14T11:41:31.981Z,19.7
2023-05-14T11:46:30.182Z,19.3
2023-05-14T11:51:28.725Z,19.3
2023-05-14T11:56:27.883Z,20
2023-05-14T12:01:25.132Z,19.4
2023-05-14T12:06:22.906Z,18.3
2023-05-14T12:11:20.070Z,17.2
2023-05-14T12:16:17.623Z,16.8
2023-05-14T12:21:15.717Z,16.5
2023-05-14T12:26:13.122Z,16.2
2023-05-14T12:31:10.924Z,15.4
2023-05-14T12:41:06.676Z,14.9
2023-05-14T12:46:04.052Z,14.3
2023-05-14T12:51:02.789Z,14.4
2023-05-14T12:56:00.574Z,14.2
2023-05-14T13:00:58.403Z,13.9
2023-05-14T13:05:56.695Z,14
2023-05-14T13:10:55.531Z,14.3
2023-05-14T13:15:54.240Z,14.6
2023-05-14T13:20:53.305Z,14.4
2023-05-14T13:25:51.134Z,14
2023-05-14T13:30:49.008Z,13.7
2023-05-14T13:35:46.900Z,13.2
2023-05-14T13:40:45.053Z,13.2
2023-05-14T13:45:42.999Z,13
2023-05-14T13:50:40.956Z,12.6
2023-05-14T13:55:38.747Z,12.2
2023-05-14T14:00:37.113Z,12.5
2023-05-14T14:05:35.382Z,12.3
2023-05-14T14:10:33.453Z,12.1
2023-05-14T14:15:31.524Z,11.9
2023-05-14T14:20:29.610Z,12.1
2023-05-14T14:25:27.975Z,12
2023-05-14T14:30:26.251Z,12.1
2023-05-14T14:35:24.808Z,12.3
2023-05-14T14:40:23.156Z,12.2
2023-05-14T14:45:21.481Z,12.2
2023-05-14T14:50:19.846Z,12.1
2023-05-14T14:55:18.076Z,12
2023-05-14T15:00:16.220Z,12
2023-05-14T15:05:14.216Z,11.8
2023-05-14T15:10:12.039Z,11.6
2023-05-14T15:15:10.212Z,11.3
2023-05-14T15:20:07.917Z,11.3
2023-05-14T15:25:05.945Z,11.2
2023-05-14T15:30:04.030Z,11.2
2023-05-14T15:35:02.013Z,11.3
2023-05-14T15:40:00.152Z,11.2
2023-05-14T15:44:58.099Z,11.1
2023-05-14T15:49:59.842Z,11.1
2023-05-14T15:54:57.209Z,11.3
2023-05-14T15:59:54.962Z,11.3
2023-05-14T16:04:52.916Z,11.1
2023-05-14T16:09:50.769Z,11.1
2023-05-14T16:14:49.040Z,11.1
2023-05-14T16:19:47.087Z,11.1
2023-05-14T16:24:45.308Z,11.1
2023-05-14T16:29:43.099Z,11
2023-05-14T16:34:41.473Z,11.1
2023-05-14T16:39:39.394Z,11.1
2023-05-14T16:44:37.599Z,11
2023-05-14T16:49:35.775Z,11
2023-05-14T16:54:34.180Z,11
2023-05-14T16:59:32.393Z,11
2023-05-14T17:04:30.540Z,10.9
2023-05-14T17:09:28.588Z,10.9
2023-05-14T17:19:24.683Z,10.8
2023-05-14T17:24:22.870Z,10.7
2023-05-14T17:29:21.661Z,10.7
2023-05-14T17:34:23.634Z,10.6
2023-05-14T17:39:20.492Z,10.6
2023-05-14T17:44:18.820Z,10.6
2023-05-14T17:49:17.285Z,10.6
2023-05-14T17:54:15.557Z,10.5
2023-05-14T17:59:13.788Z,10.6
2023-05-14T18:04:12.240Z,10.6
2023-05-14T18:09:10.423Z,10.6
2023-05-14T18:14:08.851Z,10.6
2023-05-14T18:19:06.941Z,10.5
2023-05-14T18:24:05.042Z,10.5
2023-05-14T18:29:03.106Z,10.4
2023-05-14T18:34:01.276Z,10.4
2023-05-14T18:38:59.820Z,10.3
2023-05-14T18:43:58.114Z,10.3
2023-05-14T18:48:56.453Z,10.3
2023-05-14T18:53:54.522Z,10.4
2023-05-14T18:58:52.901Z,10.5
2023-05-14T19:03:51.311Z,10.5
2023-05-14T19:08:49.468Z,10.4
2023-05-14T19:13:47.543Z,10.4
2023-05-14T19:18:49.765Z,10.3
2023-05-14T19:23:47.026Z,10.5
2023-05-14T19:28:45.085Z,10.4
2023-05-14T19:33:43.313Z,10.3
2023-05-14T19:38:41.603Z,10.5
2023-05-14T19:43:39.421Z,10.4
2023-05-14T19:48:37.664Z,10.4
2023-05-14T19:53:35.645Z,10.3
2023-05-14T19:58:33.723Z,10.2
2023-05-14T20:03:31.762Z,10.1
2023-05-14T20:08:29.694Z,10.2
2023-05-14T20:13:27.582Z,10.2
2023-05-14T20:18:25.572Z,10.1
2023-05-14T20:23:23.656Z,10.1
2023-05-14T20:28:21.512Z,10.1
2023-05-14T20:33:19.653Z,10.3
2023-05-14T20:38:21.832Z,10.4
2023-05-14T20:43:19.337Z,10.4
2023-05-14T20:48:17.355Z,10.4
2023-05-14T20:53:15.275Z,10.3
2023-05-14T20:58:13.350Z,10.2
2023-05-14T21:03:11.618Z,10.1
2023-05-14T21:08:09.413Z,10.2
2023-05-14T21:13:08.068Z,10.2
2023-05-14T21:18:06.632Z,10.2
2023-05-14T21:23:04.771Z,10.3
2023-05-14T21:28:02.999Z,10.4
2023-05-14T21:33:01.132Z,10.4
2023-05-14T21:37:58.925Z,10.3
2023-05-14T21:42:57.255Z,10.4
2023-05-14T21:47:55.360Z,10.4
2023-05-14T21:52:53.353Z,10.5
2023-05-14T21:57:51.429Z,10.5
2023-05-14T22:02:49.345Z,10.3
2023-05-14T22:07:47.483Z,10.4
2023-05-14T22:12:45.458Z,10.4
2023-05-14T22:17:43.435Z,10.4
2023-05-14T22:22:41.423Z,10.3
2023-05-14T22:27:39.473Z,10.4
2023-05-14T22:32:37.491Z,10.3
2023-05-14T22:37:35.503Z,10.3
2023-05-14T22:42:33.504Z,10.3
2023-05-14T22:47:31.541Z,10.3
2023-05-14T22:52:29.382Z,10.3
2023-05-14T22:57:27.308Z,10.2
2023-05-14T23:02:25.545Z,10.1
2023-05-14T23:07:23.694Z,10.1
2023-05-14T23:12:21.466Z,10.1
2023-05-14T23:17:19.562Z,10.1
2023-05-14T23:22:17.649Z,10.1
2023-05-14T23:27:15.720Z,10.1
2023-05-14T23:32:13.683Z,10.1
2023-05-14T23:37:11.942Z,10
2023-05-14T23:42:10.173Z,10
2023-05-14T23:47:08.622Z,10
2023-05-14T23:52:06.699Z,10
2023-05-14T23:57:04.880Z,10
